createdAt,value
2023-04-28T00:01:12.089Z,36.49
2023-04-28T00:03:38.883Z,36.72
2023-04-28T00:06:05.968Z,36.70
2023-04-28T00:08:32.720Z,36.58
2023-04-28T00:10:59.186Z,36.95
2023-04-28T00:13:25.702Z,36.86
2023-04-28T00:15:55.264Z,36.90
2023-04-28T00:18:21.963Z,36.99
2023-04-28T00:20:48.557Z,36.88
2023-04-28T00:23:15.700Z,36.80
2023-04-28T00:25:42.095Z,37.03
2023-04-28T00:28:08.611Z,37.12
2023-04-28T00:30:34.952Z,36.88
2023-04-28T00:33:01.360Z,37.02
2023-04-28T00:35:27.881Z,37.12
2023-04-28T00:37:54.210Z,37.09
2023-04-28T00:40:21.011Z,37.16
2023-04-28T00:42:47.440Z,37.43
2023-04-28T00:45:13.762Z,37.19
2023-04-28T00:47:42.108Z,37.30
2023-04-28T00:50:10.424Z,37.42
2023-04-28T00:52:38.510Z,37.57
2023-04-28T00:55:05.482Z,37.43
2023-04-28T00:57:32.246Z,37.77
2023-04-28T00:59:58.639Z,37.43
2023-04-28T01:02:26.357Z,37.75
2023-04-28T01:04:54.371Z,37.61
2023-04-28T01:07:21.031Z,37.73
2023-04-28T01:09:47.968Z,37.80
2023-04-28T01:12:14.453Z,37.76
2023-04-28T01:14:40.973Z,37.76
2023-04-28T01:17:08.830Z,37.62
2023-04-28T01:19:35.920Z,38.11
2023-04-28T01:22:02.315Z,37.95
2023-04-28T01:24:28.719Z,37.97
2023-04-28T01:26:55.041Z,38.10
2023-04-28T01:29:21.973Z,37.94
2023-04-28T01:31:48.398Z,37.95
2023-04-28T01:34:14.995Z,38.09
2023-04-28T01:36:41.562Z,38.14
2023-04-28T01:39:08.230Z,38.18
2023-04-28T01:41:34.670Z,38.38
2023-04-28T01:44:01.181Z,38.39
2023-04-28T01:46:27.673Z,38.51
2023-04-28T01:48:54.029Z,38.30
2023-04-28T01:51:20.665Z,38.55
2023-04-28T01:53:47.090Z,38.38
2023-04-28T01:56:13.430Z,38.69
2023-04-28T01:58:39.897Z,38.39
2023-04-28T02:01:06.536Z,38.58
2023-04-28T02:03:33.011Z,38.83
2023-04-28T02:05:59.448Z,38.70
2023-04-28T02:08:25.779Z,38.88
2023-04-28T02:10:52.140Z,38.67
2023-04-28T02:13:18.533Z,39.07
2023-04-28T02:15:44.918Z,38.98
2023-04-28T02:18:11.427Z,38.88
2023-04-28T02:20:37.780Z,39.17
2023-04-28T02:23:04.124Z,39.09
2023-04-28T02:25:30.512Z,39.08
2023-04-28T02:27:57.381Z,39.15
2023-04-28T02:30:23.755Z,38.98
2023-04-28T02:32:50.211Z,39.14
2023-04-28T02:35:16.670Z,39.33
2023-04-28T02:37:43.047Z,39.25
2023-04-28T02:40:09.936Z,39.67
2023-04-28T02:42:36.479Z,39.47
2023-04-28T02:45:02.893Z,39.56
2023-04-28T02:47:29.298Z,39.53
2023-04-28T02:49:55.772Z,39.86
2023-04-28T02:52:22.095Z,39.95
2023-04-28T02:54:49.102Z,39.84
2023-04-28T02:57:15.605Z,39.80
2023-04-28T02:59:42.120Z,39.84
2023-04-28T03:02:09.150Z,39.78
2023-04-28T03:04:35.804Z,39.96
2023-04-28T03:07:02.438Z,40.13
2023-04-28T03:09:28.841Z,39.76
2023-04-28T03:11:55.209Z,39.70
2023-04-28T03:14:21.636Z,39.93
2023-04-28T03:16:48.310Z,39.81
2023-04-28T03:19:14.707Z,39.59
2023-04-28T03:21:41.260Z,39.69
2023-04-28T03:24:07.853Z,39.64
2023-04-28T03:26:34.901Z,39.70
2023-04-28T03:29:01.267Z,39.71
2023-04-28T03:31:27.707Z,39.79
2023-04-28T03:33:54.203Z,39.71
2023-04-28T03:36:20.641Z,39.91
2023-04-28T03:38:47.090Z,39.76
2023-04-28T03:41:13.516Z,39.90
2023-04-28T03:43:39.979Z,39.93
2023-04-28T03:46:06.654Z,39.89
2023-04-28T03:48:33.135Z,40.01
2023-04-28T03:50:59.549Z,40.04
2023-04-28T03:53:25.998Z,39.99
2023-04-28T03:55:52.430Z,40.04
2023-04-28T03:58:21.680Z,39.99
2023-04-28T04:00:48.046Z,39.84
2023-04-28T04:03:14.769Z,39.80
2023-04-28T04:05:41.457Z,39.78
2023-04-28T04:08:07.849Z,39.72
2023-04-28T04:10:34.355Z,39.87
2023-04-28T04:13:00.936Z,39.79
2023-04-28T04:15:27.302Z,39.82
2023-04-28T04:17:53.885Z,39.80
2023-04-28T04:20:20.353Z,39.97
2023-04-28T04:22:46.900Z,39.97
2023-04-28T04:25:13.282Z,39.99
2023-04-28T04:27:39.678Z,40.13
2023-04-28T04:30:07.235Z,40.11
2023-04-28T04:32:33.782Z,39.91
2023-04-28T04:35:00.210Z,40.16
2023-04-28T04:37:27.422Z,40.04
2023-04-28T04:39:53.790Z,39.98
2023-04-28T04:42:25.337Z,39.97
2023-04-28T04:44:52.614Z,40.10
2023-04-28T04:47:19.164Z,40.26
2023-04-28T04:49:45.651Z,40.29
2023-04-28T04:52:12.123Z,40.19
2023-04-28T04:54:38.568Z,40.27
2023-04-28T04:57:05.276Z,40.15
2023-04-28T04:59:31.711Z,40.33
2023-04-28T05:01:58.276Z,40.36
2023-04-28T05:04:24.933Z,40.44
2023-04-28T05:06:51.615Z,40.41
2023-04-28T05:09:18.009Z,40.51
2023-04-28T05:11:45.725Z,40.52
2023-04-28T05:14:12.172Z,40.28
2023-04-28T05:16:39.306Z,40.47
2023-04-28T05:19:06.000Z,40.57
2023-04-28T05:21:32.665Z,40.43
2023-04-28T05:23:59.418Z,40.33
2023-04-28T05:26:26.164Z,40.36
2023-04-28T05:28:52.667Z,40.56
2023-04-28T05:31:19.095Z,40.44
2023-04-28T05:33:45.971Z,40.58
2023-04-28T05:36:13.132Z,40.46
2023-04-28T05:38:39.578Z,40.66
2023-04-28T05:41:06.139Z,40.68
2023-04-28T05:43:32.538Z,40.66
2023-04-28T05:45:59.027Z,40.52
2023-04-28T05:48:25.707Z,40.59
2023-04-28T05:50:52.240Z,41.00
2023-04-28T05:53:18.724Z,41.38
2023-04-28T05:55:45.223Z,41.63
2023-04-28T05:58:11.643Z,42.10
2023-04-28T06:00:38.019Z,41.94
2023-04-28T06:03:05.564Z,42.32
2023-04-28T06:05:32.405Z,42.38
2023-04-28T06:07:59.130Z,42.16
2023-04-28T06:10:26.824Z,42.03
2023-04-28T06:12:53.153Z,42.50
2023-04-28T06:15:19.676Z,42.75
2023-04-28T06:17:46.635Z,42.71
2023-04-28T06:20:13.972Z,43.08
2023-04-28T06:22:41.507Z,43.17
2023-04-28T06:25:08.685Z,43.17
2023-04-28T06:27:35.104Z,43.06
2023-04-28T06:30:01.505Z,43.09
2023-04-28T06:32:28.008Z,43.16
2023-04-28T06:34:55.336Z,43.02
2023-04-28T06:37:23.112Z,43.24
2023-04-28T06:39:49.450Z,43.02
2023-04-28T06:42:18.411Z,43.14
2023-04-28T06:44:45.693Z,43.09
2023-04-28T06:47:12.126Z,43.32
2023-04-28T06:49:38.674Z,43.06
2023-04-28T06:52:05.100Z,43.01
2023-04-28T06:54:31.510Z,43.18
2023-04-28T06:56:57.964Z,43.36
2023-04-28T06:59:24.300Z,43.71
2023-04-28T07:01:50.781Z,43.74
2023-04-28T07:04:18.166Z,43.55
2023-04-28T07:06:44.947Z,43.79
2023-04-28T07:09:11.380Z,43.63
2023-04-28T07:11:37.781Z,43.70
2023-04-28T07:14:04.139Z,43.78
2023-04-28T07:16:30.800Z,43.85
2023-04-28T07:18:57.400Z,43.84
2023-04-28T07:21:23.843Z,44.09
2023-04-28T07:23:50.363Z,43.99
2023-04-28T07:26:16.928Z,43.93
2023-04-28T07:28:44.661Z,43.71
2023-04-28T07:31:11.393Z,44.00
2023-04-28T07:33:37.858Z,43.86
2023-04-28T07:36:04.713Z,43.79
2023-04-28T07:38:31.260Z,43.59
2023-04-28T07:40:57.713Z,43.60
2023-04-28T07:43:24.123Z,43.52
2023-04-28T07:45:50.736Z,43.16
2023-04-28T07:48:17.462Z,43.30
2023-04-28T07:50:43.956Z,43.18
2023-04-28T07:53:10.659Z,43.40
2023-04-28T07:55:37.305Z,43.39
2023-04-28T07:58:03.768Z,43.32
2023-04-28T08:00:30.209Z,43.43
2023-04-28T08:02:57.744Z,43.59
2023-04-28T08:05:24.546Z,43.57
2023-04-28T08:07:51.052Z,43.51
2023-04-28T08:10:17.707Z,43.59
2023-04-28T08:12:45.308Z,43.69
2023-04-28T08:15:12.576Z,43.73
2023-04-28T08:17:39.324Z,43.86
2023-04-28T08:20:06.868Z,44.39
2023-04-28T08:22:33.314Z,44.31
2023-04-28T08:24:59.714Z,44.13
2023-04-28T08:27:26.343Z,44.36
2023-04-28T08:29:52.897Z,44.46
2023-04-28T08:32:19.328Z,44.63
2023-04-28T08:34:45.679Z,44.61
2023-04-28T08:37:12.202Z,45.22
2023-04-28T08:39:38.621Z,45.34
2023-04-28T08:42:05.514Z,45.86
2023-04-28T08:44:39.595Z,45.45
2023-04-28T08:47:13.995Z,46.48
2023-04-28T08:49:41.491Z,46.79
2023-04-28T08:52:12.929Z,46.55
2023-04-28T08:54:43.263Z,46.88
2023-04-28T08:57:10.938Z,47.13
2023-04-28T08:59:41.610Z,46.91
2023-04-28T09:02:09.652Z,46.89
2023-04-28T09:04:36.804Z,46.67
2023-04-28T09:07:03.394Z,46.95
2023-04-28T09:09:34.141Z,46.82
2023-04-28T09:12:03.831Z,46.87
2023-04-28T09:14:35.364Z,46.68
2023-04-28T09:17:03.496Z,46.76
2023-04-28T09:19:34.482Z,46.57
2023-04-28T09:22:05.588Z,47.05
2023-04-28T09:24:40.575Z,46.71
2023-04-28T09:27:10.665Z,46.46
2023-04-28T09:29:52.862Z,46.19
2023-04-28T09:32:21.621Z,46.49
2023-04-28T09:34:53.675Z,46.58
2023-04-28T09:37:22.661Z,46.33
2023-04-28T09:39:54.399Z,46.34
2023-04-28T09:42:44.205Z,46.40
2023-04-28T09:45:12.630Z,46.78
2023-04-28T09:47:41.089Z,46.80
2023-04-28T09:50:09.469Z,46.74
2023-04-28T09:52:36.703Z,46.48
2023-04-28T09:55:08.613Z,46.13
2023-04-28T09:57:36.171Z,45.75
2023-04-28T10:00:06.413Z,45.31
2023-04-28T10:05:08.978Z,44.85
2023-04-28T10:07:36.191Z,44.63
2023-04-28T10:10:04.131Z,44.05
2023-04-28T10:12:30.604Z,43.95
2023-04-28T10:14:58.304Z,44.20
2023-04-28T10:17:29.346Z,44.25
2023-04-28T10:19:56.443Z,43.96
2023-04-28T10:22:40.973Z,43.55
2023-04-28T10:25:11.658Z,43.46
2023-04-28T10:27:43.663Z,43.39
2023-04-28T10:30:27.339Z,43.35
2023-04-28T10:33:13.332Z,43.16
2023-04-28T10:35:40.878Z,43.08
2023-04-28T10:38:33.366Z,43.09
2023-04-28T10:41:03.284Z,42.82
2023-04-28T10:43:30.825Z,42.66
2023-04-28T10:45:59.987Z,42.31
2023-04-28T10:48:26.325Z,42.28
2023-04-28T10:51:09.360Z,42.17
2023-04-28T10:53:45.360Z,41.87
2023-04-28T10:56:21.410Z,41.78
2023-04-28T10:59:28.778Z,41.90
2023-04-28T11:01:55.499Z,41.49
2023-04-28T11:04:24.201Z,41.62
2023-04-28T11:07:10.164Z,41.19
2023-04-28T11:09:36.432Z,41.13
2023-04-28T11:12:06.857Z,40.74
2023-04-28T11:14:35.114Z,40.64
2023-04-28T11:17:11.397Z,40.73
2023-04-28T11:19:45.736Z,40.44
2023-04-28T11:22:16.153Z,40.72
2023-04-28T11:24:58.474Z,40.98
2023-04-28T11:27:26.717Z,40.60
2023-04-28T11:29:53.974Z,41.05
2023-04-28T11:32:31.735Z,40.81
2023-04-28T11:34:58.159Z,40.81
2023-04-28T11:37:25.214Z,40.69
2023-04-28T11:39:51.647Z,40.89
2023-04-28T11:42:18.090Z,40.79
2023-04-28T11:44:52.727Z,41.01
2023-04-28T11:47:30.425Z,40.77
2023-04-28T11:49:57.771Z,40.67
2023-04-28T11:52:24.131Z,40.00
2023-04-28T11:54:58.164Z,40.59
2023-04-28T11:57:25.309Z,40.74
2023-04-28T11:59:51.718Z,40.50
2023-04-28T12:02:29.699Z,40.42
2023-04-28T12:04:56.789Z,40.42
2023-04-28T12:07:23.578Z,40.73
2023-04-28T12:10:11.806Z,40.49
2023-04-28T12:15:08.496Z,40.48
2023-04-28T12:17:38.930Z,40.09
2023-04-28T12:20:07.772Z,40.04
2023-04-28T12:22:44.213Z,39.88
2023-04-28T12:25:12.827Z,39.69
2023-04-28T12:27:40.940Z,40.13
2023-04-28T12:30:20.532Z,39.95
2023-04-28T12:32:47.473Z,39.89
2023-04-28T12:35:14.278Z,40.24
2023-04-28T12:37:42.413Z,39.92
2023-04-28T12:40:09.712Z,40.04
2023-04-28T12:42:37.392Z,40.08
2023-04-28T12:45:04.152Z,40.02
2023-04-28T12:47:31.566Z,40.38
2023-04-28T12:49:58.358Z,40.27
2023-04-28T12:52:24.766Z,40.48
2023-04-28T12:54:51.201Z,40.94
2023-04-28T12:57:19.192Z,41.22
2023-04-28T12:59:50.497Z,41.21
2023-04-28T13:02:17.224Z,41.39
2023-04-28T13:04:46.028Z,41.71
2023-04-28T13:07:13.358Z,41.69
2023-04-28T13:09:40.004Z,41.82
2023-04-28T13:12:07.412Z,41.87
2023-04-28T13:14:34.107Z,41.60
2023-04-28T13:17:02.400Z,42.03
2023-04-28T13:19:30.232Z,42.17
2023-04-28T13:21:56.987Z,42.62
2023-04-28T13:24:23.406Z,43.18
2023-04-28T13:26:49.846Z,43.31
2023-04-28T13:29:16.233Z,43.93
2023-04-28T13:31:42.721Z,44.14
2023-04-28T13:34:15.609Z,44.64
2023-04-28T13:36:43.093Z,45.25
2023-04-28T13:39:14.409Z,45.74
2023-04-28T13:41:41.084Z,46.10
2023-04-28T13:44:07.712Z,46.27
2023-04-28T13:46:34.131Z,46.61
2023-04-28T13:49:00.793Z,47.11
2023-04-28T13:51:28.641Z,47.65
2023-04-28T13:53:55.041Z,48.14
2023-04-28T13:56:21.701Z,48.44
2023-04-28T13:58:48.073Z,48.79
2023-04-28T14:01:14.629Z,49.21
2023-04-28T14:03:41.454Z,49.63
2023-04-28T14:06:08.270Z,49.73
2023-04-28T14:08:34.805Z,49.86
2023-04-28T14:11:01.361Z,50.17
2023-04-28T14:13:27.752Z,50.50
2023-04-28T14:15:59.179Z,50.68
2023-04-28T14:18:27.073Z,51.00
2023-04-28T14:20:54.505Z,51.52
2023-04-28T14:23:24.145Z,51.75
2023-04-28T14:25:55.997Z,51.66
2023-04-28T14:28:22.757Z,52.23
2023-04-28T14:30:50.078Z,52.36
2023-04-28T14:33:16.641Z,52.65
2023-04-28T14:35:43.102Z,52.90
2023-04-28T14:38:09.616Z,52.87
2023-04-28T14:40:36.072Z,53.34
2023-04-28T14:43:02.459Z,53.62
2023-04-28T14:45:28.917Z,53.69
2023-04-28T14:47:56.035Z,53.94
2023-04-28T14:50:22.653Z,54.33
2023-04-28T14:52:49.558Z,54.39
2023-04-28T14:55:16.095Z,54.16
2023-04-28T14:57:42.735Z,54.10
2023-04-28T15:00:09.732Z,53.75
2023-04-28T15:02:36.400Z,53.58
2023-04-28T15:05:03.466Z,53.40
2023-04-28T15:07:31.521Z,53.21
2023-04-28T15:09:59.435Z,52.87
2023-04-28T15:12:26.838Z,52.77
2023-04-28T15:14:53.817Z,52.23
2023-04-28T15:17:21.548Z,52.30
2023-04-28T15:19:48.018Z,52.34
2023-04-28T15:22:14.464Z,51.98
2023-04-28T15:24:41.246Z,51.82
2023-04-28T15:27:07.840Z,51.76
2023-04-28T15:29:34.350Z,51.73
2023-04-28T15:32:00.826Z,51.71
2023-04-28T15:34:27.340Z,51.87
2023-04-28T15:36:53.814Z,51.83
2023-04-28T15:39:20.469Z,52.09
2023-04-28T15:41:47.188Z,52.33
2023-04-28T15:44:13.705Z,52.34
2023-04-28T15:49:16.708Z,52.69
2023-04-28T15:51:43.036Z,53.55
2023-04-28T15:54:09.472Z,53.22
2023-04-28T15:56:35.870Z,53.13
2023-04-28T15:59:02.381Z,53.33
2023-04-28T16:01:29.551Z,53.64
2023-04-28T16:03:56.180Z,53.55
2023-04-28T16:06:22.775Z,53.81
2023-04-28T16:08:49.156Z,54.04
2023-04-28T16:11:19.272Z,54.15
2023-04-28T16:13:45.677Z,54.23
2023-04-28T16:16:12.491Z,54.37
2023-04-28T16:18:39.367Z,54.57
2023-04-28T16:21:05.830Z,54.98
2023-04-28T16:23:32.212Z,55.32
2023-04-28T16:25:58.649Z,55.82
2023-04-28T16:28:25.076Z,55.88
2023-04-28T16:30:51.425Z,55.65
2023-04-28T16:33:17.813Z,56.07
2023-04-28T16:35:44.328Z,56.67
2023-04-28T16:38:11.767Z,56.75
2023-04-28T16:40:38.147Z,56.62
2023-04-28T16:43:04.552Z,57.15
2023-04-28T16:45:30.897Z,56.89
2023-04-28T16:47:57.366Z,57.06
2023-04-28T16:50:23.741Z,57.08
2023-04-28T16:52:50.140Z,57.13
2023-04-28T16:55:18.308Z,57.41
2023-04-28T16:57:45.523Z,57.13
2023-04-28T17:00:12.420Z,56.88
2023-04-28T17:02:38.910Z,56.43
2023-04-28T17:05:05.487Z,56.95
2023-04-28T17:07:31.855Z,57.57
2023-04-28T17:09:58.238Z,57.37
2023-04-28T17:12:25.136Z,57.63
2023-04-28T17:14:51.572Z,57.12
2023-04-28T17:17:18.112Z,57.43
2023-04-28T17:19:44.468Z,57.48
2023-04-28T17:22:11.014Z,57.50
2023-04-28T17:24:37.522Z,57.56
2023-04-28T17:27:04.029Z,57.42
2023-04-28T17:29:30.971Z,57.60
2023-04-28T17:31:57.512Z,57.49
2023-04-28T17:34:24.016Z,57.98
2023-04-28T17:36:50.530Z,58.24
2023-04-28T17:39:17.135Z,57.99
2023-04-28T17:41:43.695Z,58.67
2023-04-28T17:44:10.070Z,58.04
2023-04-28T17:46:37.705Z,58.68
2023-04-28T17:49:04.637Z,58.29
2023-04-28T17:51:32.170Z,58.25
2023-04-28T17:53:59.320Z,58.20
2023-04-28T17:56:26.242Z,58.43
2023-04-28T17:58:52.757Z,58.28
2023-04-28T18:01:19.546Z,58.63
2023-04-28T18:03:46.249Z,58.88
2023-04-28T18:06:13.714Z,59.18
2023-04-28T18:08:40.948Z,59.29
2023-04-28T18:11:09.015Z,59.51
2023-04-28T18:13:35.460Z,59.39
2023-04-28T18:16:04.466Z,59.60
2023-04-28T18:18:33.306Z,59.85
2023-04-28T18:21:02.265Z,59.71
2023-04-28T18:23:30.248Z,60.36
2023-04-28T18:25:56.706Z,60.25
2023-04-28T18:28:23.121Z,59.93
2023-04-28T18:30:49.906Z,60.09
2023-04-28T18:33:22.803Z,60.42
2023-04-28T18:35:49.569Z,60.29
2023-04-28T18:38:15.968Z,59.99
2023-04-28T18:40:42.331Z,60.54
2023-04-28T18:43:13.189Z,60.51
2023-04-28T18:45:41.286Z,60.43
2023-04-28T18:48:08.969Z,60.74
2023-04-28T18:50:36.309Z,60.69
2023-04-28T18:53:04.439Z,60.55
2023-04-28T18:55:34.226Z,60.41
2023-04-28T18:58:02.010Z,60.97
2023-04-28T19:00:28.756Z,61.20
2023-04-28T19:02:55.173Z,61.03
2023-04-28T19:05:22.303Z,61.23
2023-04-28T19:07:48.885Z,61.71
2023-04-28T19:10:15.696Z,61.67
2023-04-28T19:12:42.043Z,61.59
2023-04-28T19:15:08.613Z,61.65
2023-04-28T19:17:35.053Z,61.67
2023-04-28T19:20:01.505Z,61.69
2023-04-28T19:22:35.888Z,61.81
2023-04-28T19:25:04.337Z,61.83
2023-04-28T19:27:32.277Z,61.70
2023-04-28T19:30:02.972Z,61.49
2023-04-28T19:32:30.312Z,61.69
2023-04-28T19:34:56.874Z,61.99
2023-04-28T19:37:23.904Z,62.07
2023-04-28T19:39:51.085Z,61.89
2023-04-28T19:42:18.178Z,61.97
2023-04-28T19:44:45.841Z,62.32
2023-04-28T19:47:12.737Z,62.24
2023-04-28T19:49:41.359Z,62.35
2023-04-28T19:52:10.125Z,62.42
2023-04-28T19:54:38.802Z,62.22
2023-04-28T19:57:05.445Z,62.41
2023-04-28T19:59:31.987Z,62.46
2023-04-28T20:01:58.751Z,62.69
2023-04-28T20:04:26.189Z,62.71
2023-04-28T20:06:53.590Z,62.47
2023-04-28T20:09:20.059Z,62.83
2023-04-28T20:11:46.880Z,62.80
2023-04-28T20:14:13.858Z,62.75
2023-04-28T20:16:40.371Z,62.92
2023-04-28T20:19:06.834Z,62.95
2023-04-28T20:21:35.059Z,62.82
2023-04-28T20:24:02.079Z,63.12
2023-04-28T20:26:28.761Z,62.97
2023-04-28T20:28:57.107Z,63.00
2023-04-28T20:31:23.564Z,63.40
2023-04-28T20:33:50.134Z,63.33
2023-04-28T20:36:16.549Z,63.19
2023-04-28T20:38:43.388Z,63.15
2023-04-28T20:41:10.398Z,62.97
2023-04-28T20:43:37.367Z,63.02
2023-04-28T20:46:09.875Z,62.97
2023-04-28T20:48:36.811Z,62.69
2023-04-28T20:51:05.018Z,62.64
2023-04-28T20:53:33.156Z,62.68
2023-04-28T20:55:59.548Z,62.61
2023-04-28T20:58:26.057Z,62.47
2023-04-28T21:00:53.176Z,62.55
2023-04-28T21:03:23.344Z,62.16
2023-04-28T21:05:49.911Z,62.31
2023-04-28T21:08:16.428Z,62.11
2023-04-28T21:10:42.835Z,61.98
2023-04-28T21:13:09.795Z,62.03
2023-04-28T21:15:40.313Z,61.65
2023-04-28T21:18:07.099Z,61.48
2023-04-28T21:20:33.531Z,61.75
2023-04-28T21:22:59.868Z,61.75
2023-04-28T21:25:26.323Z,61.59
2023-04-28T21:27:53.160Z,61.95
2023-04-28T21:30:20.700Z,61.82
2023-04-28T21:32:47.367Z,61.90
2023-04-28T21:35:13.988Z,61.74
2023-04-28T21:37:40.753Z,61.66
2023-04-28T21:40:08.907Z,61.55
2023-04-28T21:42:35.492Z,61.80
2023-04-28T21:45:01.841Z,61.67
2023-04-28T21:47:28.382Z,61.65
2023-04-28T21:49:54.823Z,61.67
2023-04-28T21:52:21.169Z,61.54
2023-04-28T21:54:47.556Z,61.47
2023-04-28T21:57:15.643Z,61.50
2023-04-28T21:59:42.235Z,60.90
2023-04-28T22:02:09.061Z,60.85
2023-04-28T22:04:35.741Z,60.47
2023-04-28T22:07:02.639Z,60.40
2023-04-28T22:09:29.069Z,60.65
2023-04-28T22:11:55.404Z,59.90
2023-04-28T22:14:39.364Z,60.61
2023-04-28T22:17:07.581Z,60.45
2023-04-28T22:19:34.089Z,60.46
2023-04-28T22:22:00.566Z,60.25
2023-04-28T22:24:27.694Z,60.37
2023-04-28T22:26:54.811Z,60.57
2023-04-28T22:29:21.420Z,60.88
2023-04-28T22:31:47.855Z,61.39
2023-04-28T22:34:14.409Z,61.85
2023-04-28T22:36:41.436Z,61.86
2023-04-28T22:39:07.896Z,61.61
2023-04-28T22:41:34.237Z,61.94
2023-04-28T22:44:00.619Z,61.75
2023-04-28T22:46:28.155Z,61.78
2023-04-28T22:48:54.532Z,62.04
2023-04-28T22:51:20.900Z,62.43
2023-04-28T22:53:48.314Z,62.11
2023-04-28T22:56:15.412Z,62.45
2023-04-28T22:58:41.892Z,62.51
2023-04-28T23:01:08.449Z,62.91
2023-04-28T23:03:34.917Z,62.89
2023-04-28T23:06:01.386Z,62.98
2023-04-28T23:08:27.722Z,63.35
2023-04-28T23:10:56.198Z,63.07
2023-04-28T23:13:22.714Z,63.08
2023-04-28T23:15:49.181Z,62.99
2023-04-28T23:18:15.548Z,63.53
2023-04-28T23:20:42.011Z,63.24
2023-04-28T23:23:08.367Z,63.42
2023-04-28T23:25:34.701Z,63.71
2023-04-28T23:28:01.123Z,63.34
2023-04-28T23:30:27.525Z,62.95
2023-04-28T23:32:53.923Z,63.38
2023-04-28T23:35:20.478Z,63.04
2023-04-28T23:37:47.259Z,63.55
2023-04-28T23:40:13.845Z,63.51
2023-04-28T23:42:40.989Z,63.72
2023-04-28T23:45:08.376Z,63.45
2023-04-28T23:47:34.695Z,63.47
2023-04-28T23:50:01.077Z,63.54
2023-04-28T23:52:27.408Z,63.22
2023-04-28T23:54:53.724Z,63.25
2023-04-28T23:57:20.223Z,63.33
2023-04-28T23:59:47.253Z,63.22
